Circle Line Staten I — WDJ460O — position and weather

sailwx.info

Track history (hours):
 
Tides and Currents Weather Stations Pressure Air Temp Water Temp Dewpoint Dewpoint Depression Visibility Wind Speed Wind Dir Waves Ship Positions

Circle Line Staten I

Last reported at 2017-Nov-15 21:31 UTC. Time now 2017-Nov-22 09:25 UTC.
Position N 40°46' W 074°00'.

Length 51 m.

Type: Passenger vessel. MMSI: 367779250.

Date/timePositionNaut miles runAvg speedWind from/ knotsBaromVisibWave heightAir tempDewpointWater temp
2017-Nov-15 21:31N 40°46' W 074°00'0 2.0
2017-Nov-15 21:30N 40°46' W 074°00'0 0.0
2017-Nov-15 21:00N 40°46' W 074°00'0 0.0
2017-Nov-15 20:30N 40°46' W 074°00'0 0.0
2017-Nov-15 20:00N 40°46' W 074°00'2 3.0
2017-Nov-15 19:30N 40°44' W 074°01'0 0.3
2017-Nov-15 19:00N 40°44' W 074°01'3 5.4
2017-Nov-15 18:30N 40°42' W 074°02'3 6.4
2017-Nov-15 18:00N 40°45' W 074°01'1 1.4
2017-Nov-15 17:00N 40°44' W 074°01'1 1.2
2017-Nov-15 16:30N 40°44' W 074°01'0 0.4
2017-Nov-15 16:00N 40°44' W 074°01'2 3.7
2017-Nov-15 15:30N 40°46' W 074°00'0 0.0
2017-Nov-15 15:00N 40°46' W 074°00'0 0.0
2017-Nov-15 14:30N 40°46' W 074°00'0 0.0
2017-Nov-15 14:00N 40°46' W 074°00'0 0.0
2017-Nov-15 13:30N 40°46' W 074°00'0 0.0
2017-Nov-15 13:00N 40°46' W 074°00'0 0.0
2017-Nov-15 12:30N 40°46' W 074°00'0 0.0
2017-Nov-15 12:00N 40°46' W 074°00'0 0.0
2017-Nov-15 11:30N 40°46' W 074°00'0 0.1
2017-Nov-15 11:00N 40°46' W 074°00'0 0.0
2017-Nov-15 10:30N 40°46' W 074°00'  
2017-Nov-12 22:30N 40°46' W 074°00'612.0
2017-Nov-12 22:00N 40°51' W 073°57'9 1.3
2017-Nov-12 15:19N 40°60' W 073°54'414.3
2017-Nov-12 15:00N 40°55' W 073°55'713.8
2017-Nov-12 14:30N 40°49' W 073°58'3 6.6
2017-Nov-12 14:01N 40°46' W 074°00'0 0.0
2017-Nov-12 13:30N 40°46' W 074°00'0 0.0
2017-Nov-11 22:40N 40°46' W 074°00'1 6.5
2017-Nov-11 22:30N 40°47' W 073°60'815.3
2017-Nov-11 22:00N 40°54' W 073°55'6 0.9
2017-Nov-11 15:12N 40°59' W 073°54'314.4
2017-Nov-11 15:00N 40°57' W 073°54'1013.8
2017-Nov-11 14:15N 40°47' W 073°60'1 5.6
2017-Nov-11 14:01N 40°46' W 074°00'0 0.0
2017-Nov-11 13:31N 40°46' W 074°00'0 0.0
2017-Nov-11 01:51N 40°46' W 074°00'3 9.2
2017-Nov-11 01:30N 40°43' W 074°01'3 6.9
2017-Nov-11 01:00N 40°45' W 073°58'510.7
2017-Nov-11 00:30N 40°41' W 074°03'5 9.8
2017-Nov-11 00:00N 40°46' W 074°00'0 0.0
2017-Nov-10 23:30N 40°46' W 074°00'0 0.0
2017-Nov-10 22:59N 40°46' W 074°00'0 0.0
2017-Nov-10 22:30N 40°46' W 074°00'0 0.0
2017-Nov-10 22:00N 40°46' W 074°00'3 6.8
2017-Nov-10 21:30N 40°42' W 073°59'3 5.7
2017-Nov-10 21:01N 40°41' W 074°02'5 9.8
2017-Nov-10 20:31N 40°46' W 074°00'0 0.0
2017-Nov-10 20:01N 40°46' W 074°00'0 0.0
2017-Nov-10 19:31N 40°46' W 074°00'5 9.5
2017-Nov-10 19:01N 40°41' W 074°02'5 9.5
2017-Nov-10 18:30N 40°46' W 074°00'0 0.0
2017-Nov-10 18:00N 40°46' W 074°00'0 0.0
2017-Nov-10 17:30N 40°46' W 074°00'0 0.0
2017-Nov-10 17:00N 40°46' W 074°00'0 0.0
2017-Nov-10 16:30N 40°46' W 074°00'0 0.0
2017-Nov-10 16:00N 40°46' W 074°00'0 0.0
2017-Nov-10 15:30N 40°46' W 074°00'0 0.0
2017-Nov-10 15:00N 40°46' W 074°00'0 0.0
2017-Nov-09 19:22N 40°46' W 074°00'513.5
2017-Nov-09 19:00N 40°41' W 074°03'5 9.7
2017-Nov-09 18:30N 40°46' W 074°00'0 0.0
2017-Nov-09 18:00N 40°46' W 074°00'0 0.0
2017-Nov-09 17:30N 40°46' W 074°00'0 0.0
2017-Nov-09 17:01N 40°46' W 074°00'0 0.0
2017-Nov-09 16:31N 40°46' W 074°00'0 0.0
2017-Nov-09 16:01N 40°46' W 074°00'5 9.8
2017-Nov-09 15:30N 40°41' W 074°03'5 9.8
2017-Nov-09 15:00N 40°46' W 074°00'0 0.0
2017-Nov-09 14:30N 40°46' W 074°00'0 0.0
2017-Nov-09 14:00N 40°46' W 074°00'0 0.0
2017-Nov-09 13:30N 40°46' W 074°00'0 0.0
2017-Nov-09 13:00N 40°46' W 074°00'0 0.0
2017-Nov-09 12:30N 40°46' W 074°00'0 0.0
2017-Nov-09 01:44N 40°46' W 074°00'2 8.6
2017-Nov-09 01:30N 40°44' W 074°01'2 5.0
2017-Nov-09 01:01N 40°44' W 073°58'4 7.7
2017-Nov-09 00:30N 40°42' W 074°02'4 8.7
2017-Nov-09 00:00N 40°46' W 074°00'0 0.0
2017-Nov-08 23:30N 40°46' W 074°00'0 0.0
2017-Nov-08 23:00N 40°46' W 074°00'0 0.0
2017-Nov-08 22:30N 40°46' W 074°00'0 0.0
2017-Nov-08 22:00N 40°46' W 074°00'4 7.5
2017-Nov-08 21:30N 40°42' W 074°00'2 3.1
2017-Nov-08 21:01N 40°41' W 074°02'5 9.3
2017-Nov-08 20:30N 40°46' W 074°00'0 0.0
2017-Nov-08 20:00N 40°46' W 074°00'0 0.0
2017-Nov-08 19:30N 40°46' W 074°00'510.0
2017-Nov-08 19:00N 40°41' W 074°03'5 9.9
2017-Nov-08 18:30N 40°46' W 074°00'0 0.0
2017-Nov-08 18:00N 40°46' W 074°00'0 0.0
2017-Nov-08 17:30N 40°46' W 074°00'0 0.0
2017-Nov-08 17:00N 40°46' W 074°00'0 0.0
2017-Nov-08 16:30N 40°46' W 074°00'0 0.0
2017-Nov-08 16:00N 40°46' W 074°00'0 0.0
2017-Nov-08 15:30N 40°46' W 074°00'0 0.0
2017-Nov-08 15:00N 40°46' W 074°00'0 0.0
2017-Nov-08 14:30N 40°46' W 074°00'0 0.0
2017-Nov-08 14:00N 40°46' W 074°00'0 0.0
2017-Nov-07 01:56N 40°46' W 074°00'2 5.6
2017-Nov-07 01:30N 40°43' W 074°01'2 4.4
2017-Nov-07 01:00N 40°44' W 073°58'3 6.9
2017-Nov-07 00:31N 40°41' W 074°02'4 8.9
2017-Nov-07 00:00N 40°46' W 074°00'0 0.0
2017-Nov-06 23:30N 40°46' W 074°00'0 0.0
2017-Nov-06 23:00N 40°46' W 074°00'0 0.0
2017-Nov-06 22:30N 40°46' W 074°00'0 0.0
2017-Nov-06 22:00N 40°46' W 074°00'3 6.8
2017-Nov-06 21:30N 40°42' W 073°59'2 4.3
2017-Nov-06 21:01N 40°41' W 074°02'5 9.0
2017-Nov-06 20:30N 40°46' W 074°00'0 0.0
2017-Nov-05 22:32N 40°46' W 074°00'0 0.3
2017-Nov-05 22:31N 40°46' W 074°00'714.5
2017-Nov-05 22:00N 40°53' W 073°56'  
Track history (hours):
 
Tides and Currents Weather Stations Pressure Air Temp Water Temp Dewpoint Dewpoint Depression Visibility Wind Speed Wind Dir Waves Ship Positions

Circle Line Staten I

Last reported at 2017-Nov-15 21:31 UTC. Time now 2017-Nov-22 09:25 UTC.
Position N 40°46' W 074°00'.

Length 51 m.

Type: Passenger vessel. MMSI: 367779250.

Date/timePositionNaut miles runAvg speedWind from/ knotsBaromVisibWave heightAir tempDewpointWater temp
2017-Nov-15 21:31N 40°46' W 074°00'0 2.0
2017-Nov-15 21:30N 40°46' W 074°00'0 0.0
2017-Nov-15 21:00N 40°46' W 074°00'0 0.0
2017-Nov-15 20:30N 40°46' W 074°00'0 0.0
2017-Nov-15 20:00N 40°46' W 074°00'2 3.0
2017-Nov-15 19:30N 40°44' W 074°01'0 0.3
2017-Nov-15 19:00N 40°44' W 074°01'3 5.4
2017-Nov-15 18:30N 40°42' W 074°02'3 6.4
2017-Nov-15 18:00N 40°45' W 074°01'1 1.4
2017-Nov-15 17:00N 40°44' W 074°01'1 1.2
2017-Nov-15 16:30N 40°44' W 074°01'0 0.4
2017-Nov-15 16:00N 40°44' W 074°01'2 3.7
2017-Nov-15 15:30N 40°46' W 074°00'0 0.0
2017-Nov-15 15:00N 40°46' W 074°00'0 0.0
2017-Nov-15 14:30N 40°46' W 074°00'0 0.0
2017-Nov-15 14:00N 40°46' W 074°00'0 0.0
2017-Nov-15 13:30N 40°46' W 074°00'0 0.0
2017-Nov-15 13:00N 40°46' W 074°00'0 0.0
2017-Nov-15 12:30N 40°46' W 074°00'0 0.0
2017-Nov-15 12:00N 40°46' W 074°00'0 0.0
2017-Nov-15 11:30N 40°46' W 074°00'0 0.1
2017-Nov-15 11:00N 40°46' W 074°00'0 0.0
2017-Nov-15 10:30N 40°46' W 074°00'  
2017-Nov-12 22:30N 40°46' W 074°00'612.0
2017-Nov-12 22:00N 40°51' W 073°57'9 1.3
2017-Nov-12 15:19N 40°60' W 073°54'414.3
2017-Nov-12 15:00N 40°55' W 073°55'713.8
2017-Nov-12 14:30N 40°49' W 073°58'3 6.6
2017-Nov-12 14:01N 40°46' W 074°00'0 0.0
2017-Nov-12 13:30N 40°46' W 074°00'0 0.0
2017-Nov-11 22:40N 40°46' W 074°00'1 6.5
2017-Nov-11 22:30N 40°47' W 073°60'815.3
2017-Nov-11 22:00N 40°54' W 073°55'6 0.9
2017-Nov-11 15:12N 40°59' W 073°54'314.4
2017-Nov-11 15:00N 40°57' W 073°54'1013.8
2017-Nov-11 14:15N 40°47' W 073°60'1 5.6
2017-Nov-11 14:01N 40°46' W 074°00'0 0.0
2017-Nov-11 13:31N 40°46' W 074°00'0 0.0
2017-Nov-11 01:51N 40°46' W 074°00'3 9.2
2017-Nov-11 01:30N 40°43' W 074°01'3 6.9
2017-Nov-11 01:00N 40°45' W 073°58'510.7
2017-Nov-11 00:30N 40°41' W 074°03'5 9.8
2017-Nov-11 00:00N 40°46' W 074°00'0 0.0
2017-Nov-10 23:30N 40°46' W 074°00'0 0.0
2017-Nov-10 22:59N 40°46' W 074°00'0 0.0
2017-Nov-10 22:30N 40°46' W 074°00'0 0.0
2017-Nov-10 22:00N 40°46' W 074°00'3 6.8
2017-Nov-10 21:30N 40°42' W 073°59'3 5.7
2017-Nov-10 21:01N 40°41' W 074°02'5 9.8
2017-Nov-10 20:31N 40°46' W 074°00'0 0.0
2017-Nov-10 20:01N 40°46' W 074°00'0 0.0
2017-Nov-10 19:31N 40°46' W 074°00'5 9.5
2017-Nov-10 19:01N 40°41' W 074°02'5 9.5
2017-Nov-10 18:30N 40°46' W 074°00'0 0.0
2017-Nov-10 18:00N 40°46' W 074°00'0 0.0
2017-Nov-10 17:30N 40°46' W 074°00'0 0.0
2017-Nov-10 17:00N 40°46' W 074°00'0 0.0
2017-Nov-10 16:30N 40°46' W 074°00'0 0.0
2017-Nov-10 16:00N 40°46' W 074°00'0 0.0
2017-Nov-10 15:30N 40°46' W 074°00'0 0.0
2017-Nov-10 15:00N 40°46' W 074°00'0 0.0
2017-Nov-09 19:22N 40°46' W 074°00'513.5
2017-Nov-09 19:00N 40°41' W 074°03'5 9.7
2017-Nov-09 18:30N 40°46' W 074°00'0 0.0
2017-Nov-09 18:00N 40°46' W 074°00'0 0.0
2017-Nov-09 17:30N 40°46' W 074°00'0 0.0
2017-Nov-09 17:01N 40°46' W 074°00'0 0.0
2017-Nov-09 16:31N 40°46' W 074°00'0 0.0
2017-Nov-09 16:01N 40°46' W 074°00'5 9.8
2017-Nov-09 15:30N 40°41' W 074°03'5 9.8
2017-Nov-09 15:00N 40°46' W 074°00'0 0.0
2017-Nov-09 14:30N 40°46' W 074°00'0 0.0
2017-Nov-09 14:00N 40°46' W 074°00'0 0.0
2017-Nov-09 13:30N 40°46' W 074°00'0 0.0
2017-Nov-09 13:00N 40°46' W 074°00'0 0.0
2017-Nov-09 12:30N 40°46' W 074°00'0 0.0
2017-Nov-09 01:44N 40°46' W 074°00'2 8.6
2017-Nov-09 01:30N 40°44' W 074°01'2 5.0
2017-Nov-09 01:01N 40°44' W 073°58'4 7.7
2017-Nov-09 00:30N 40°42' W 074°02'4 8.7
2017-Nov-09 00:00N 40°46' W 074°00'0 0.0
2017-Nov-08 23:30N 40°46' W 074°00'0 0.0
2017-Nov-08 23:00N 40°46' W 074°00'0 0.0
2017-Nov-08 22:30N 40°46' W 074°00'0 0.0
2017-Nov-08 22:00N 40°46' W 074°00'4 7.5
2017-Nov-08 21:30N 40°42' W 074°00'2 3.1
2017-Nov-08 21:01N 40°41' W 074°02'5 9.3
2017-Nov-08 20:30N 40°46' W 074°00'0 0.0
2017-Nov-08 20:00N 40°46' W 074°00'0 0.0
2017-Nov-08 19:30N 40°46' W 074°00'510.0
2017-Nov-08 19:00N 40°41' W 074°03'5 9.9
2017-Nov-08 18:30N 40°46' W 074°00'0 0.0
2017-Nov-08 18:00N 40°46' W 074°00'0 0.0
2017-Nov-08 17:30N 40°46' W 074°00'0 0.0
2017-Nov-08 17:00N 40°46' W 074°00'0 0.0
2017-Nov-08 16:30N 40°46' W 074°00'0 0.0
2017-Nov-08 16:00N 40°46' W 074°00'0 0.0
2017-Nov-08 15:30N 40°46' W 074°00'0 0.0
2017-Nov-08 15:00N 40°46' W 074°00'0 0.0
2017-Nov-08 14:30N 40°46' W 074°00'0 0.0
2017-Nov-08 14:00N 40°46' W 074°00'0 0.0
2017-Nov-07 01:56N 40°46' W 074°00'2 5.6
2017-Nov-07 01:30N 40°43' W 074°01'2 4.4
2017-Nov-07 01:00N 40°44' W 073°58'3 6.9
2017-Nov-07 00:31N 40°41' W 074°02'4 8.9
2017-Nov-07 00:00N 40°46' W 074°00'0 0.0
2017-Nov-06 23:30N 40°46' W 074°00'0 0.0
2017-Nov-06 23:00N 40°46' W 074°00'0 0.0
2017-Nov-06 22:30N 40°46' W 074°00'0 0.0
2017-Nov-06 22:00N 40°46' W 074°00'3 6.8
2017-Nov-06 21:30N 40°42' W 073°59'2 4.3
2017-Nov-06 21:01N 40°41' W 074°02'5 9.0
2017-Nov-06 20:30N 40°46' W 074°00'0 0.0
2017-Nov-05 22:32N 40°46' W 074°00'0 0.3
2017-Nov-05 22:31N 40°46' W 074°00'714.5
2017-Nov-05 22:00N 40°53' W 073°56'  

Dump ship's entire track history